createdAt,value
2024-04-08T00:03:48.273Z,8.4
2024-04-08T00:09:08.868Z,8.8
2024-04-08T00:14:29.924Z,8.8
2024-04-08T00:19:51.558Z,8.8
2024-04-08T00:25:12.947Z,8.4
2024-04-08T00:30:34.094Z,8.1
2024-04-08T00:35:39.970Z,8.2
2024-04-08T00:41:04.351Z,8
2024-04-08T00:46:25.235Z,7.5
2024-04-08T00:51:47.183Z,7.4
2024-04-08T00:57:08.752Z,7.4
2024-04-08T01:02:29.217Z,7.5
2024-04-08T01:08:05.694Z,7.5
2024-04-08T01:13:28.646Z,7.8
2024-04-08T01:19:04.730Z,7.6
2024-04-08T01:24:41.654Z,7.4
2024-04-08T01:30:23.135Z,7.1
2024-04-08T01:35:59.746Z,6.7
2024-04-08T01:46:42.392Z,6.8
2024-04-08T01:52:03.593Z,6.7
2024-04-08T02:03:02.142Z,6.4
2024-04-08T02:08:38.701Z,6.4
2024-04-08T02:14:15.497Z,6.4
2024-04-08T02:19:36.461Z,6.7
2024-04-08T02:25:13.431Z,6.4
2024-04-08T02:30:50.572Z,6.1
2024-04-08T02:36:27.495Z,5.8
2024-04-08T02:42:04.497Z,5.3
2024-04-08T02:47:41.836Z,5.3
2024-04-08T02:53:18.125Z,5.6
2024-04-08T02:58:41.470Z,5.6
2024-04-08T03:04:02.861Z,5.8
2024-04-08T03:09:27.620Z,5.6
2024-04-08T03:14:52.129Z,5.7
2024-04-08T03:20:12.977Z,5.6
2024-04-08T03:25:34.016Z,5.4
2024-04-08T03:31:14.276Z,5.4
2024-04-08T03:36:51.933Z,5.3
2024-04-08T03:42:29.370Z,5
2024-04-08T03:48:07.264Z,4.7
2024-04-08T03:53:46.564Z,4.8
2024-04-08T03:59:24.505Z,4.9
2024-04-08T04:05:00.943Z,4.8
2024-04-08T04:10:37.552Z,4.8
2024-04-08T04:16:13.614Z,4.8
2024-04-08T04:21:50.307Z,4.8
2024-04-08T04:27:11.281Z,4.9
2024-04-08T04:32:49.433Z,5.3
2024-04-08T04:38:26.524Z,5.5
2024-04-08T04:44:03.876Z,5.9
2024-04-08T04:49:40.019Z,6.3
2024-04-08T04:55:18.040Z,6.9
2024-04-08T05:00:39.303Z,7.1
2024-04-08T05:06:15.692Z,7.5
2024-04-08T05:11:52.729Z,7.9
2024-04-08T05:17:29.242Z,8.1
2024-04-08T05:23:07.419Z,8.6
2024-04-08T05:28:44.367Z,8.8
2024-04-08T05:34:24.320Z,9.3
2024-04-08T05:40:01.122Z,9.3
2024-04-08T05:45:23.078Z,10.1
2024-04-08T05:51:00.675Z,10.6
2024-04-08T05:56:37.245Z,10.9
2024-04-08T06:02:14.476Z,10.9
2024-04-08T06:07:51.075Z,11.5
2024-04-08T06:13:27.939Z,12
2024-04-08T06:19:04.477Z,12.2
2024-04-08T06:24:41.118Z,12.3
2024-04-08T06:30:21.410Z,13.3
2024-04-08T06:35:58.007Z,13.7
2024-04-08T06:41:35.366Z,13.8
2024-04-08T06:47:12.608Z,14.7
2024-04-08T06:52:52.347Z,13.6
2024-04-08T06:58:30.549Z,14.6
2024-04-08T07:04:08.909Z,15.2
2024-04-08T07:09:46.020Z,15.5
2024-04-08T07:15:23.200Z,15.6
2024-04-08T07:21:04.015Z,15.7
2024-04-08T07:26:44.085Z,16.6
2024-04-08T07:32:05.934Z,16.9
2024-04-08T07:37:45.509Z,17.9
2024-04-08T07:43:37.384Z,17.2
2024-04-08T07:49:14.816Z,17.3
2024-04-08T07:54:51.913Z,19.1
2024-04-08T08:00:29.172Z,19.6
2024-04-08T08:06:09.876Z,18.9
2024-04-08T08:11:46.267Z,20
2024-04-08T08:17:25.996Z,19.7
2024-04-08T08:23:07.401Z,19.5
2024-04-08T08:28:32.127Z,19.9
2024-04-08T08:34:09.475Z,19.5
2024-04-08T08:39:47.146Z,19.2
2024-04-08T08:45:24.076Z,20.9
2024-04-08T08:50:46.162Z,20.1
2024-04-08T08:56:23.129Z,19.5
2024-04-08T09:02:04.577Z,20.7
2024-04-08T09:07:47.015Z,21.2
2024-04-08T09:13:24.387Z,21.1
2024-04-08T09:24:07.568Z,21.3
2024-04-08T09:29:49.716Z,20.5
2024-04-08T09:35:26.731Z,21.6
2024-04-08T09:40:48.644Z,21.9
2024-04-08T09:46:25.442Z,22.2
2024-04-08T09:52:07.098Z,22.4
2024-04-08T09:57:37.639Z,22.6
2024-04-08T10:02:58.877Z,22.4
2024-04-08T10:13:31.850Z,21.3
2024-04-08T10:18:54.429Z,22.1
2024-04-08T10:29:30.542Z,24.3
2024-04-08T10:34:54.988Z,22.8
2024-04-08T10:40:34.902Z,22.9
2024-04-08T10:46:13.082Z,22.8
2024-04-08T10:51:50.942Z,22.7
2024-04-08T10:57:28.800Z,24.1
2024-04-08T11:03:07.922Z,24.1
2024-04-08T11:08:45.871Z,24.5
2024-04-08T11:14:23.543Z,22.5
2024-04-08T11:19:45.711Z,24.4
2024-04-08T11:25:27.500Z,23.4
2024-04-08T11:31:04.162Z,24.4
2024-04-08T11:36:41.878Z,24.9
2024-04-08T11:42:37.851Z,25.1
2024-04-08T11:48:22.949Z,23.8
2024-04-08T11:53:46.630Z,24.3
2024-04-08T11:59:41.288Z,24.4
2024-04-08T12:05:02.813Z,24.9
2024-04-08T12:10:39.291Z,23.8
2024-04-08T12:16:02.052Z,24.1
2024-04-08T12:21:10.760Z,25.9
2024-04-08T12:26:47.034Z,24.2
2024-04-08T12:32:26.856Z,24.6
2024-04-08T12:37:48.407Z,23.3
2024-04-08T12:43:10.877Z,25.8
2024-04-08T12:48:59.555Z,24.6
2024-04-08T12:54:25.752Z,25.9
2024-04-08T12:59:48.427Z,24.6
2024-04-08T13:05:10.572Z,24.5
2024-04-08T13:10:36.288Z,25.3
2024-04-08T13:15:31.172Z,25.4
2024-04-08T13:20:53.633Z,23.9
2024-04-08T13:26:37.349Z,24.8
2024-04-08T13:32:18.884Z,25.8
2024-04-08T13:38:00.960Z,25.1
2024-04-08T13:43:37.423Z,26
2024-04-08T13:49:15.628Z,26.5
2024-04-08T13:54:53.022Z,25.5
2024-04-08T14:00:17.469Z,24.3
2024-04-08T14:05:56.803Z,25.7
2024-04-08T14:11:35.033Z,25.2
2024-04-08T14:17:13.831Z,25.4
2024-04-08T14:22:55.769Z,24.9
2024-04-08T14:28:33.135Z,25.3
2024-04-08T14:34:09.292Z,24.1
2024-04-08T14:41:07.480Z,24.3
2024-04-08T14:47:23.008Z,23.4
2024-04-08T14:53:24.677Z,23.8
2024-04-08T14:59:18.649Z,24.8
2024-04-08T15:04:56.679Z,24.6
2024-04-08T15:10:41.626Z,24.6
2024-04-08T15:16:19.712Z,23.9
2024-04-08T15:21:57.240Z,23.4
2024-04-08T15:27:32.671Z,24.2
2024-04-08T15:33:13.896Z,24.9
2024-04-08T15:38:38.072Z,24.9
2024-04-08T15:44:14.503Z,25.6
2024-04-08T15:49:53.063Z,24.7
2024-04-08T15:55:15.375Z,24.3
2024-04-08T16:00:51.630Z,25
2024-04-08T16:06:32.698Z,24.8
2024-04-08T16:12:10.031Z,24.6
2024-04-08T16:17:47.942Z,23.6
2024-04-08T16:24:12.715Z,23.1
2024-04-08T16:29:38.409Z,22.8
2024-04-08T16:35:16.013Z,21.9
2024-04-08T16:40:53.536Z,21.1
2024-04-08T16:46:31.112Z,20.6
2024-04-08T16:52:07.971Z,20.3
2024-04-08T16:57:45.330Z,20
2024-04-08T17:03:09.068Z,19.9
2024-04-08T17:08:00.480Z,19.6
2024-04-08T17:13:39.261Z,19.4
2024-04-08T17:19:18.496Z,19.3
2024-04-08T17:24:39.807Z,19.2
2024-04-08T17:30:17.476Z,19.1
2024-04-08T17:35:42.839Z,19
2024-04-08T17:46:35.706Z,18.5
2024-04-08T17:52:14.808Z,18.3
2024-04-08T17:57:22.528Z,18.1
2024-04-08T18:02:46.743Z,17.7
2024-04-08T18:08:27.487Z,17.4
2024-04-08T18:13:58.760Z,17.1
2024-04-08T18:19:43.998Z,16.9
2024-04-08T18:25:21.013Z,16.4
2024-04-08T18:30:42.175Z,16.1
2024-04-08T18:36:08.278Z,16.1
2024-04-08T18:41:29.461Z,16.3
2024-04-08T18:47:09.185Z,16.2
2024-04-08T18:52:32.479Z,16.1
2024-04-08T18:58:11.984Z,16
2024-04-08T19:03:46.303Z,15.8
2024-04-08T19:09:25.088Z,15.6
2024-04-08T19:14:41.468Z,15.4
2024-04-08T19:20:24.419Z,15.3
2024-04-08T19:26:06.826Z,15.1
2024-04-08T19:31:43.962Z,15.1
2024-04-08T19:37:20.744Z,15
2024-04-08T19:42:58.539Z,14.8
2024-04-08T19:49:07.161Z,14.6
2024-04-08T19:54:51.625Z,14.6
2024-04-08T20:00:32.032Z,14.5
2024-04-08T20:06:09.888Z,14.5
2024-04-08T20:11:47.012Z,14.4
2024-04-08T20:17:24.723Z,14.6
2024-04-08T20:23:04.033Z,14.6
2024-04-08T20:28:26.921Z,14.4
2024-04-08T20:34:06.518Z,14.4
2024-04-08T20:39:28.470Z,14.3
2024-04-08T20:45:05.666Z,14.3
2024-04-08T20:50:43.921Z,13.9
2024-04-08T20:56:16.760Z,13.8
2024-04-08T21:01:24.282Z,13.8
2024-04-08T21:06:48.222Z,13.8
2024-04-08T21:12:25.573Z,13.7
2024-04-08T21:17:31.872Z,13.6
2024-04-08T21:22:55.939Z,13.4
2024-04-08T21:27:46.204Z,13.4
2024-04-08T21:32:51.778Z,13.2
2024-04-08T21:38:15.016Z,10.6
2024-04-08T21:43:39.491Z,10.3
2024-04-08T21:49:00.929Z,10.3
2024-04-08T21:54:23.450Z,10.3
2024-04-08T21:59:45.206Z,10.2
2024-04-08T22:05:08.001Z,9.6
2024-04-08T22:10:30.238Z,9.4
2024-04-08T22:15:52.380Z,9.3
2024-04-08T22:21:17.792Z,9.8
2024-04-08T22:26:41.518Z,9.4
2024-04-08T22:32:03.488Z,9.4
2024-04-08T22:37:10.678Z,9.2
2024-04-08T22:42:59.156Z,9.1
2024-04-08T22:48:20.012Z,8.9
2024-04-08T22:53:41.853Z,8.8
2024-04-08T22:59:19.526Z,8.8
2024-04-08T23:04:30.324Z,8.9
2024-04-08T23:09:54.977Z,8.9
2024-04-08T23:15:17.517Z,8.8
2024-04-08T23:20:43.600Z,8.9
2024-04-08T23:26:07.139Z,8.3
2024-04-08T23:31:45.012Z,8.1
2024-04-08T23:37:08.624Z,8.3
2024-04-08T23:47:22.141Z,8.3
2024-04-08T23:52:43.929Z,7.9
2024-04-08T23:58:04.475Z,7.7
